Aviation Digital Data Service (ADDS)

Output produced by METARs form (0405 UTC 26 June 2019)
found at http://www.aviationweather.gov/metar/data/
 
METAR text: UUBW 260330Z 11001MPS CAVOK 15/09 Q1025 R30/010060 NOSIG
Conditions at: UUBW (MOSCOW/NOVOYE SR, RU) observed 0330 UTC 26 June 2019
Temperature: 15.0°C (59°F)
Dewpoint: 9.0°C (48°F) [RH = 67%]
Pressure (altimeter): 30.27 inches Hg (1025.0 mb)
Winds: from the ESE (110 degrees) at 2 MPH (2 knots; 1.0 m/s)
Visibility: 6 or more miles (10+ km)
Ceiling: ceiling and visibility are OK
Clouds: unknown
Weather: no significant weather observed at this time

METAR text: UUBW 260300Z 11001MPS CAVOK 14/10 Q1025 R30/010060 NOSIG
Conditions at: UUBW (MOSCOW/NOVOYE SR, RU) observed 0300 UTC 26 June 2019
Temperature: 14.0°C (57°F)
Dewpoint: 10.0°C (50°F) [RH = 77%]
Pressure (altimeter): 30.27 inches Hg (1025.0 mb)
Winds: from the ESE (110 degrees) at 2 MPH (2 knots; 1.0 m/s)
Visibility: 6 or more miles (10+ km)
Ceiling: ceiling and visibility are OK
Clouds: unknown
Weather: no significant weather observed at this time

METAR text: UUBW 260230Z 12001MPS CAVOK 13/10 Q1025 R30/010060 NOSIG
Conditions at: UUBW (MOSCOW/NOVOYE SR, RU) observed 0230 UTC 26 June 2019
Temperature: 13.0°C (55°F)
Dewpoint: 10.0°C (50°F) [RH = 82%]
Pressure (altimeter): 30.27 inches Hg (1025.0 mb)
Winds: from the ESE (120 degrees) at 2 MPH (2 knots; 1.0 m/s)
Visibility: 6 or more miles (10+ km)
Ceiling: ceiling and visibility are OK
Clouds: unknown
Weather: no significant weather observed at this time

METAR text: UUBW 260200Z 11001MPS CAVOK 13/09 Q1025 R30/010060 NOSIG
Conditions at: UUBW (MOSCOW/NOVOYE SR, RU) observed 0200 UTC 26 June 2019
Temperature: 13.0°C (55°F)
Dewpoint: 9.0°C (48°F) [RH = 77%]
Pressure (altimeter): 30.27 inches Hg (1025.0 mb)
Winds: from the ESE (110 degrees) at 2 MPH (2 knots; 1.0 m/s)
Visibility: 6 or more miles (10+ km)
Ceiling: ceiling and visibility are OK
Clouds: unknown
Weather: no significant weather observed at this time

METAR text: UUBW 260130Z 10001MPS CAVOK 12/10 Q1025 R30/010060 NOSIG
Conditions at: UUBW (MOSCOW/NOVOYE SR, RU) observed 0130 UTC 26 June 2019
Temperature: 12.0°C (54°F)
Dewpoint: 10.0°C (50°F) [RH = 88%]
Pressure (altimeter): 30.27 inches Hg (1025.0 mb)
Winds: from the E (100 degrees) at 2 MPH (2 knots; 1.0 m/s)
Visibility: 6 or more miles (10+ km)
Ceiling: ceiling and visibility are OK
Clouds: unknown
Weather: no significant weather observed at this time

METAR text: UUBW 260100Z 09002MPS CAVOK 12/09 Q1025 R30/010060 NOSIG
Conditions at: UUBW (MOSCOW/NOVOYE SR, RU) observed 0100 UTC 26 June 2019
Temperature: 12.0°C (54°F)
Dewpoint: 9.0°C (48°F) [RH = 82%]
Pressure (altimeter): 30.27 inches Hg (1025.0 mb)
Winds: from the E (90 degrees) at 5 MPH (4 knots; 2.1 m/s)
Visibility: 6 or more miles (10+ km)
Ceiling: ceiling and visibility are OK
Clouds: unknown
Weather: no significant weather observed at this time

METAR text: UUBW 260030Z 09001MPS CAVOK 13/10 Q1026 R30/010060 NOSIG
Conditions at: UUBW (MOSCOW/NOVOYE SR, RU) observed 0030 UTC 26 June 2019
Temperature: 13.0°C (55°F)
Dewpoint: 10.0°C (50°F) [RH = 82%]
Pressure (altimeter): 30.30 inches Hg (1026.0 mb)
Winds: from the E (90 degrees) at 2 MPH (2 knots; 1.0 m/s)
Visibility: 6 or more miles (10+ km)
Ceiling: ceiling and visibility are OK
Clouds: unknown
Weather: no significant weather observed at this time

METAR text: UUBW 260000Z 06001MPS CAVOK 13/10 Q1026 R30/010060 NOSIG
Conditions at: UUBW (MOSCOW/NOVOYE SR, RU) observed 0000 UTC 26 June 2019
Temperature: 13.0°C (55°F)
Dewpoint: 10.0°C (50°F) [RH = 82%]
Pressure (altimeter): 30.30 inches Hg (1026.0 mb)
Winds: from the ENE (60 degrees) at 2 MPH (2 knots; 1.0 m/s)
Visibility: 6 or more miles (10+ km)
Ceiling: ceiling and visibility are OK
Clouds: unknown
Weather: no significant weather observed at this time

METAR text: UUBW 252330Z 00000MPS CAVOK 13/09 Q1026 R30/010060 NOSIG
Conditions at: UUBW (MOSCOW/NOVOYE SR, RU) observed 2330 UTC 25 June 2019
Temperature: 13.0°C (55°F)
Dewpoint: 9.0°C (48°F) [RH = 77%]
Pressure (altimeter): 30.30 inches Hg (1026.0 mb)
Winds: calm
Visibility: 6 or more miles (10+ km)
Ceiling: ceiling and visibility are OK
Clouds: unknown
Weather: no significant weather observed at this time

METAR text: UUBW 252300Z 00000MPS CAVOK 14/08 Q1026 R30/010060 NOSIG
Conditions at: UUBW (MOSCOW/NOVOYE SR, RU) observed 2300 UTC 25 June 2019
Temperature: 14.0°C (57°F)
Dewpoint: 8.0°C (46°F) [RH = 67%]
Pressure (altimeter): 30.30 inches Hg (1026.0 mb)
Winds: calm
Visibility: 6 or more miles (10+ km)
Ceiling: ceiling and visibility are OK
Clouds: unknown
Weather: no significant weather observed at this time

METAR text: UUBW 252230Z 00000MPS CAVOK 14/09 Q1026 R30/010060 NOSIG
Conditions at: UUBW (MOSCOW/NOVOYE SR, RU) observed 2230 UTC 25 June 2019
Temperature: 14.0°C (57°F)
Dewpoint: 9.0°C (48°F) [RH = 72%]
Pressure (altimeter): 30.30 inches Hg (1026.0 mb)
Winds: calm
Visibility: 6 or more miles (10+ km)
Ceiling: ceiling and visibility are OK
Clouds: unknown
Weather: no significant weather observed at this time

METAR text: UUBW 252200Z 00000MPS CAVOK 15/08 Q1026 R30/010060 NOSIG
Conditions at: UUBW (MOSCOW/NOVOYE SR, RU) observed 2200 UTC 25 June 2019
Temperature: 15.0°C (59°F)
Dewpoint: 8.0°C (46°F) [RH = 63%]
Pressure (altimeter): 30.30 inches Hg (1026.0 mb)
Winds: calm
Visibility: 6 or more miles (10+ km)
Ceiling: ceiling and visibility are OK
Clouds: unknown
Weather: no significant weather observed at this time

METAR text: UUBW 252130Z 00000MPS CAVOK 16/08 Q1026 R30/010060 NOSIG
Conditions at: UUBW (MOSCOW/NOVOYE SR, RU) observed 2130 UTC 25 June 2019
Temperature: 16.0°C (61°F)
Dewpoint: 8.0°C (46°F) [RH = 59%]
Pressure (altimeter): 30.30 inches Hg (1026.0 mb)
Winds: calm
Visibility: 6 or more miles (10+ km)
Ceiling: ceiling and visibility are OK
Clouds: unknown
Weather: no significant weather observed at this time

METAR text: UUBW 252100Z 00000MPS CAVOK 16/08 Q1026 R30/010060 NOSIG
Conditions at: UUBW (MOSCOW/NOVOYE SR, RU) observed 2100 UTC 25 June 2019
Temperature: 16.0°C (61°F)
Dewpoint: 8.0°C (46°F) [RH = 59%]
Pressure (altimeter): 30.30 inches Hg (1026.0 mb)
Winds: calm
Visibility: 6 or more miles (10+ km)
Ceiling: ceiling and visibility are OK
Clouds: unknown
Weather: no significant weather observed at this time

METAR text: UUBW 252030Z 00000MPS CAVOK 17/07 Q1026 R30/010060 NOSIG
Conditions at: UUBW (MOSCOW/NOVOYE SR, RU) observed 2030 UTC 25 June 2019
Temperature: 17.0°C (63°F)
Dewpoint: 7.0°C (45°F) [RH = 52%]
Pressure (altimeter): 30.30 inches Hg (1026.0 mb)
Winds: calm
Visibility: 6 or more miles (10+ km)
Ceiling: ceiling and visibility are OK
Clouds: unknown
Weather: no significant weather observed at this time

METAR text: UUBW 252000Z 35001MPS CAVOK 18/07 Q1026 R30/010060 NOSIG
Conditions at: UUBW (MOSCOW/NOVOYE SR, RU) observed 2000 UTC 25 June 2019
Temperature: 18.0°C (64°F)
Dewpoint: 7.0°C (45°F) [RH = 49%]
Pressure (altimeter): 30.30 inches Hg (1026.0 mb)
Winds: from the N (350 degrees) at 2 MPH (2 knots; 1.0 m/s)
Visibility: 6 or more miles (10+ km)
Ceiling: ceiling and visibility are OK
Clouds: unknown
Weather: no significant weather observed at this time

METAR text: UUBW 251930Z 36002MPS CAVOK 19/07 Q1026 R30/010060 NOSIG
Conditions at: UUBW (MOSCOW/NOVOYE SR, RU) observed 1930 UTC 25 June 2019
Temperature: 19.0°C (66°F)
Dewpoint: 7.0°C (45°F) [RH = 46%]
Pressure (altimeter): 30.30 inches Hg (1026.0 mb)
Winds: from the N (360 degrees) at 5 MPH (4 knots; 2.1 m/s)
Visibility: 6 or more miles (10+ km)
Ceiling: ceiling and visibility are OK
Clouds: unknown
Weather: no significant weather observed at this time

METAR text: UUBW 251900Z 35002MPS CAVOK 21/07 Q1026 R30/010060 NOSIG
Conditions at: UUBW (MOSCOW/NOVOYE SR, RU) observed 1900 UTC 25 June 2019
Temperature: 21.0°C (70°F)
Dewpoint: 7.0°C (45°F) [RH = 40%]
Pressure (altimeter): 30.30 inches Hg (1026.0 mb)
Winds: from the N (350 degrees) at 5 MPH (4 knots; 2.1 m/s)
Visibility: 6 or more miles (10+ km)
Ceiling: ceiling and visibility are OK
Clouds: unknown
Weather: no significant weather observed at this time

METAR text: UUBW 251830Z 34002MPS CAVOK 20/07 Q1026 R30/010060 NOSIG
Conditions at: UUBW (MOSCOW/NOVOYE SR, RU) observed 1830 UTC 25 June 2019
Temperature: 20.0°C (68°F)
Dewpoint: 7.0°C (45°F) [RH = 43%]
Pressure (altimeter): 30.30 inches Hg (1026.0 mb)
Winds: from the NNW (340 degrees) at 5 MPH (4 knots; 2.1 m/s)
Visibility: 6 or more miles (10+ km)
Ceiling: ceiling and visibility are OK
Clouds: unknown
Weather: no significant weather observed at this time

METAR text: UUBW 251800Z 34002MPS CAVOK 21/07 Q1026 R30/010060 NOSIG
Conditions at: UUBW (MOSCOW/NOVOYE SR, RU) observed 1800 UTC 25 June 2019
Temperature: 21.0°C (70°F)
Dewpoint: 7.0°C (45°F) [RH = 40%]
Pressure (altimeter): 30.30 inches Hg (1026.0 mb)
Winds: from the NNW (340 degrees) at 5 MPH (4 knots; 2.1 m/s)
Visibility: 6 or more miles (10+ km)
Ceiling: ceiling and visibility are OK
Clouds: unknown
Weather: no significant weather observed at this time

METAR text: UUBW 251730Z 34003MPS CAVOK 21/07 Q1026 R30/010060 NOSIG
Conditions at: UUBW (MOSCOW/NOVOYE SR, RU) observed 1730 UTC 25 June 2019
Temperature: 21.0°C (70°F)
Dewpoint: 7.0°C (45°F) [RH = 40%]
Pressure (altimeter): 30.30 inches Hg (1026.0 mb)
Winds: from the NNW (340 degrees) at 7 MPH (6 knots; 3.1 m/s)
Visibility: 6 or more miles (10+ km)
Ceiling: ceiling and visibility are OK
Clouds: unknown
Weather: no significant weather observed at this time

METAR text: UUBW 251700Z 32004MPS CAVOK 22/06 Q1026 R30/010060 NOSIG
Conditions at: UUBW (MOSCOW/NOVOYE SR, RU) observed 1700 UTC 25 June 2019
Temperature: 22.0°C (72°F)
Dewpoint: 6.0°C (43°F) [RH = 35%]
Pressure (altimeter): 30.30 inches Hg (1026.0 mb)
Winds: from the NW (320 degrees) at 9 MPH (8 knots; 4.1 m/s)
Visibility: 6 or more miles (10+ km)
Ceiling: ceiling and visibility are OK
Clouds: unknown
Weather: no significant weather observed at this time

METAR text: UUBW 251630Z 34005MPS CAVOK 22/06 Q1026 R30/010060 NOSIG
Conditions at: UUBW (MOSCOW/NOVOYE SR, RU) observed 1630 UTC 25 June 2019
Temperature: 22.0°C (72°F)
Dewpoint: 6.0°C (43°F) [RH = 35%]
Pressure (altimeter): 30.30 inches Hg (1026.0 mb)
Winds: from the NNW (340 degrees) at 12 MPH (10 knots; 5.1 m/s)
Visibility: 6 or more miles (10+ km)
Ceiling: ceiling and visibility are OK
Clouds: unknown
Weather: no significant weather observed at this time

METAR text: UUBW 251600Z 33005MPS CAVOK 22/06 Q1026 R30/010060 NOSIG
Conditions at: UUBW (MOSCOW/NOVOYE SR, RU) observed 1600 UTC 25 June 2019
Temperature: 22.0°C (72°F)
Dewpoint: 6.0°C (43°F) [RH = 35%]
Pressure (altimeter): 30.30 inches Hg (1026.0 mb)
Winds: from the NNW (330 degrees) at 12 MPH (10 knots; 5.1 m/s)
Visibility: 6 or more miles (10+ km)
Ceiling: ceiling and visibility are OK
Clouds: unknown
Weather: no significant weather observed at this time

METAR text: UUBW 251530Z 32005MPS CAVOK 23/06 Q1026 R30/010060 NOSIG
Conditions at: UUBW (MOSCOW/NOVOYE SR, RU) observed 1530 UTC 25 June 2019
Temperature: 23.0°C (73°F)
Dewpoint: 6.0°C (43°F) [RH = 33%]
Pressure (altimeter): 30.30 inches Hg (1026.0 mb)
Winds: from the NW (320 degrees) at 12 MPH (10 knots; 5.1 m/s)
Visibility: 6 or more miles (10+ km)
Ceiling: ceiling and visibility are OK
Clouds: unknown
Weather: no significant weather observed at this time

METAR text: UUBW 251500Z 33005G10MPS CAVOK 23/06 Q1026 R30/010060 NOSIG
Conditions at: UUBW (MOSCOW/NOVOYE SR, RU) observed 1500 UTC 25 June 2019
Temperature: 23.0°C (73°F)
Dewpoint: 6.0°C (43°F) [RH = 33%]
Pressure (altimeter): 30.30 inches Hg (1026.0 mb)
Winds: from the NNW (330 degrees) at 12 MPH (10 knots; 5.1 m/s)
gusting to 22 MPH (19 knots; 9.8 m/s)
Visibility: 6 or more miles (10+ km)
Ceiling: ceiling and visibility are OK
Clouds: unknown
Weather: no significant weather observed at this time

METAR text: UUBW 251430Z 33006MPS CAVOK 24/05 Q1026 R30/010060 NOSIG
Conditions at: UUBW (MOSCOW/NOVOYE SR, RU) observed 1430 UTC 25 June 2019
Temperature: 24.0°C (75°F)
Dewpoint: 5.0°C (41°F) [RH = 29%]
Pressure (altimeter): 30.30 inches Hg (1026.0 mb)
Winds: from the NNW (330 degrees) at 14 MPH (12 knots; 6.2 m/s)
Visibility: 6 or more miles (10+ km)
Ceiling: ceiling and visibility are OK
Clouds: unknown
Weather: no significant weather observed at this time

METAR text: UUBW 251400Z 30006MPS 270V340 CAVOK 24/05 Q1026 R30/010060 NOSIG
Conditions at: UUBW (MOSCOW/NOVOYE SR, RU) observed 1400 UTC 25 June 2019
Temperature: 24.0°C (75°F)
Dewpoint: 5.0°C (41°F) [RH = 29%]
Pressure (altimeter): 30.30 inches Hg (1026.0 mb)
Winds: from the WNW (300 degrees) at 14 MPH (12 knots; 6.2 m/s)
Visibility: 6 or more miles (10+ km)
Ceiling: ceiling and visibility are OK
Clouds: unknown
Weather: no significant weather observed at this time

METAR text: UUBW 251330Z 34006MPS CAVOK 23/05 Q1026 R30/010060 NOSIG
Conditions at: UUBW (MOSCOW/NOVOYE SR, RU) observed 1330 UTC 25 June 2019
Temperature: 23.0°C (73°F)
Dewpoint: 5.0°C (41°F) [RH = 31%]
Pressure (altimeter): 30.30 inches Hg (1026.0 mb)
Winds: from the NNW (340 degrees) at 14 MPH (12 knots; 6.2 m/s)
Visibility: 6 or more miles (10+ km)
Ceiling: ceiling and visibility are OK
Clouds: unknown
Weather: no significant weather observed at this time

METAR text: UUBW 251300Z 33006MPS CAVOK 23/05 Q1026 R30/010060 NOSIG
Conditions at: UUBW (MOSCOW/NOVOYE SR, RU) observed 1300 UTC 25 June 2019
Temperature: 23.0°C (73°F)
Dewpoint: 5.0°C (41°F) [RH = 31%]
Pressure (altimeter): 30.30 inches Hg (1026.0 mb)
Winds: from the NNW (330 degrees) at 14 MPH (12 knots; 6.2 m/s)
Visibility: 6 or more miles (10+ km)
Ceiling: ceiling and visibility are OK
Clouds: unknown
Weather: no significant weather observed at this time

METAR text: UUBW 251230Z 31006G12MPS CAVOK 24/05 Q1026 R30/010060 NOSIG
Conditions at: UUBW (MOSCOW/NOVOYE SR, RU) observed 1230 UTC 25 June 2019
Temperature: 24.0°C (75°F)
Dewpoint: 5.0°C (41°F) [RH = 29%]
Pressure (altimeter): 30.30 inches Hg (1026.0 mb)
Winds: from the NW (310 degrees) at 14 MPH (12 knots; 6.2 m/s)
gusting to 26 MPH (23 knots; 11.8 m/s)
Visibility: 6 or more miles (10+ km)
Ceiling: ceiling and visibility are OK
Clouds: unknown
Weather: no significant weather observed at this time

METAR text: UUBW 251200Z 32006MPS CAVOK 25/04 Q1026 R30/010060 NOSIG
Conditions at: UUBW (MOSCOW/NOVOYE SR, RU) observed 1200 UTC 25 June 2019
Temperature: 25.0°C (77°F)
Dewpoint: 4.0°C (39°F) [RH = 26%]
Pressure (altimeter): 30.30 inches Hg (1026.0 mb)
Winds: from the NW (320 degrees) at 14 MPH (12 knots; 6.2 m/s)
Visibility: 6 or more miles (10+ km)
Ceiling: ceiling and visibility are OK
Clouds: unknown
Weather: no significant weather observed at this time

METAR text: UUBW 251130Z 31008MPS CAVOK 24/05 Q1026 R30/010060 NOSIG
Conditions at: UUBW (MOSCOW/NOVOYE SR, RU) observed 1130 UTC 25 June 2019
Temperature: 24.0°C (75°F)
Dewpoint: 5.0°C (41°F) [RH = 29%]
Pressure (altimeter): 30.30 inches Hg (1026.0 mb)
Winds: from the NW (310 degrees) at 18 MPH (16 knots; 8.2 m/s)
Visibility: 6 or more miles (10+ km)
Ceiling: ceiling and visibility are OK
Clouds: unknown
Weather: no significant weather observed at this time

METAR text: UUBW 251100Z 32006MPS CAVOK 23/04 Q1026 R30/010060 NOSIG
Conditions at: UUBW (MOSCOW/NOVOYE SR, RU) observed 1100 UTC 25 June 2019
Temperature: 23.0°C (73°F)
Dewpoint: 4.0°C (39°F) [RH = 29%]
Pressure (altimeter): 30.30 inches Hg (1026.0 mb)
Winds: from the NW (320 degrees) at 14 MPH (12 knots; 6.2 m/s)
Visibility: 6 or more miles (10+ km)
Ceiling: ceiling and visibility are OK
Clouds: unknown
Weather: no significant weather observed at this time

METAR text: UUBW 251030Z 32007MPS CAVOK 23/05 Q1026 R30/010060 NOSIG
Conditions at: UUBW (MOSCOW/NOVOYE SR, RU) observed 1030 UTC 25 June 2019
Temperature: 23.0°C (73°F)
Dewpoint: 5.0°C (41°F) [RH = 31%]
Pressure (altimeter): 30.30 inches Hg (1026.0 mb)
Winds: from the NW (320 degrees) at 16 MPH (14 knots; 7.2 m/s)
Visibility: 6 or more miles (10+ km)
Ceiling: ceiling and visibility are OK
Clouds: unknown
Weather: no significant weather observed at this time

METAR text: UUBW 251000Z 34006MPS CAVOK 24/05 Q1026 R30/010060 NOSIG
Conditions at: UUBW (MOSCOW/NOVOYE SR, RU) observed 1000 UTC 25 June 2019
Temperature: 24.0°C (75°F)
Dewpoint: 5.0°C (41°F) [RH = 29%]
Pressure (altimeter): 30.30 inches Hg (1026.0 mb)
Winds: from the NNW (340 degrees) at 14 MPH (12 knots; 6.2 m/s)
Visibility: 6 or more miles (10+ km)
Ceiling: ceiling and visibility are OK
Clouds: unknown
Weather: no significant weather observed at this time

METAR text: UUBW 250930Z 33007MPS CAVOK 24/05 Q1027 R30/010060 NOSIG
Conditions at: UUBW (MOSCOW/NOVOYE SR, RU) observed 0930 UTC 25 June 2019
Temperature: 24.0°C (75°F)
Dewpoint: 5.0°C (41°F) [RH = 29%]
Pressure (altimeter): 30.32 inches Hg (1027.0 mb)
Winds: from the NNW (330 degrees) at 16 MPH (14 knots; 7.2 m/s)
Visibility: 6 or more miles (10+ km)
Ceiling: ceiling and visibility are OK
Clouds: unknown
Weather: no significant weather observed at this time

METAR text: UUBW 250900Z 30007MPS 270V350 CAVOK 23/04 Q1027 R30/010060 NOSIG
Conditions at: UUBW (MOSCOW/NOVOYE SR, RU) observed 0900 UTC 25 June 2019
Temperature: 23.0°C (73°F)
Dewpoint: 4.0°C (39°F) [RH = 29%]
Pressure (altimeter): 30.32 inches Hg (1027.0 mb)
Winds: from the WNW (300 degrees) at 16 MPH (14 knots; 7.2 m/s)
Visibility: 6 or more miles (10+ km)
Ceiling: ceiling and visibility are OK
Clouds: unknown
Weather: no significant weather observed at this time

METAR text: UUBW 250830Z 31006MPS 280V350 CAVOK 23/05 Q1027 R30/010060 NOSIG
Conditions at: UUBW (MOSCOW/NOVOYE SR, RU) observed 0830 UTC 25 June 2019
Temperature: 23.0°C (73°F)
Dewpoint: 5.0°C (41°F) [RH = 31%]
Pressure (altimeter): 30.32 inches Hg (1027.0 mb)
Winds: from the NW (310 degrees) at 14 MPH (12 knots; 6.2 m/s)
Visibility: 6 or more miles (10+ km)
Ceiling: ceiling and visibility are OK
Clouds: unknown
Weather: no significant weather observed at this time

METAR text: UUBW 250800Z 33007MPS CAVOK 23/05 Q1027 R30/010060 NOSIG
Conditions at: UUBW (MOSCOW/NOVOYE SR, RU) observed 0800 UTC 25 June 2019
Temperature: 23.0°C (73°F)
Dewpoint: 5.0°C (41°F) [RH = 31%]
Pressure (altimeter): 30.32 inches Hg (1027.0 mb)
Winds: from the NNW (330 degrees) at 16 MPH (14 knots; 7.2 m/s)
Visibility: 6 or more miles (10+ km)
Ceiling: ceiling and visibility are OK
Clouds: unknown
Weather: no significant weather observed at this time

METAR text: UUBW 250730Z 32006MPS CAVOK 22/05 Q1026 R30/010060 NOSIG
Conditions at: UUBW (MOSCOW/NOVOYE SR, RU) observed 0730 UTC 25 June 2019
Temperature: 22.0°C (72°F)
Dewpoint: 5.0°C (41°F) [RH = 33%]
Pressure (altimeter): 30.30 inches Hg (1026.0 mb)
Winds: from the NW (320 degrees) at 14 MPH (12 knots; 6.2 m/s)
Visibility: 6 or more miles (10+ km)
Ceiling: ceiling and visibility are OK
Clouds: unknown
Weather: no significant weather observed at this time

METAR text: UUBW 250700Z 33005MPS CAVOK 22/05 Q1027 R30/010060 NOSIG
Conditions at: UUBW (MOSCOW/NOVOYE SR, RU) observed 0700 UTC 25 June 2019
Temperature: 22.0°C (72°F)
Dewpoint: 5.0°C (41°F) [RH = 33%]
Pressure (altimeter): 30.32 inches Hg (1027.0 mb)
Winds: from the NNW (330 degrees) at 12 MPH (10 knots; 5.1 m/s)
Visibility: 6 or more miles (10+ km)
Ceiling: ceiling and visibility are OK
Clouds: unknown
Weather: no significant weather observed at this time

METAR text: UUBW 250630Z 32007MPS CAVOK 22/05 Q1026 R30/010060 NOSIG
Conditions at: UUBW (MOSCOW/NOVOYE SR, RU) observed 0630 UTC 25 June 2019
Temperature: 22.0°C (72°F)
Dewpoint: 5.0°C (41°F) [RH = 33%]
Pressure (altimeter): 30.30 inches Hg (1026.0 mb)
Winds: from the NW (320 degrees) at 16 MPH (14 knots; 7.2 m/s)
Visibility: 6 or more miles (10+ km)
Ceiling: ceiling and visibility are OK
Clouds: unknown
Weather: no significant weather observed at this time

METAR text: UUBW 250600Z 30006MPS CAVOK 22/06 Q1026 R30/010060 NOSIG
Conditions at: UUBW (MOSCOW/NOVOYE SR, RU) observed 0600 UTC 25 June 2019
Temperature: 22.0°C (72°F)
Dewpoint: 6.0°C (43°F) [RH = 35%]
Pressure (altimeter): 30.30 inches Hg (1026.0 mb)
Winds: from the WNW (300 degrees) at 14 MPH (12 knots; 6.2 m/s)
Visibility: 6 or more miles (10+ km)
Ceiling: ceiling and visibility are OK
Clouds: unknown
Weather: no significant weather observed at this time

METAR text: UUBW 250530Z 32006MPS CAVOK 21/07 Q1026 R30/010060 NOSIG
Conditions at: UUBW (MOSCOW/NOVOYE SR, RU) observed 0530 UTC 25 June 2019
Temperature: 21.0°C (70°F)
Dewpoint: 7.0°C (45°F) [RH = 40%]
Pressure (altimeter): 30.30 inches Hg (1026.0 mb)
Winds: from the NW (320 degrees) at 14 MPH (12 knots; 6.2 m/s)
Visibility: 6 or more miles (10+ km)
Ceiling: ceiling and visibility are OK
Clouds: unknown
Weather: no significant weather observed at this time

METAR text: UUBW 250500Z 29005MPS CAVOK 21/07 Q1027 R30/010060 NOSIG
Conditions at: UUBW (MOSCOW/NOVOYE SR, RU) observed 0500 UTC 25 June 2019
Temperature: 21.0°C (70°F)
Dewpoint: 7.0°C (45°F) [RH = 40%]
Pressure (altimeter): 30.32 inches Hg (1027.0 mb)
Winds: from the WNW (290 degrees) at 12 MPH (10 knots; 5.1 m/s)
Visibility: 6 or more miles (10+ km)
Ceiling: ceiling and visibility are OK
Clouds: unknown
Weather: no significant weather observed at this time

METAR text: UUBW 250430Z 29003MPS CAVOK 20/08 Q1027 R30/010060 NOSIG
Conditions at: UUBW (MOSCOW/NOVOYE SR, RU) observed 0430 UTC 25 June 2019
Temperature: 20.0°C (68°F)
Dewpoint: 8.0°C (46°F) [RH = 46%]
Pressure (altimeter): 30.32 inches Hg (1027.0 mb)
Winds: from the WNW (290 degrees) at 7 MPH (6 knots; 3.1 m/s)
Visibility: 6 or more miles (10+ km)
Ceiling: ceiling and visibility are OK
Clouds: unknown
Weather: no significant weather observed at this time

METAR text: UUBW 250400Z 29002MPS 260V330 CAVOK 19/09 Q1027 R30/010060 NOSIG
Conditions at: UUBW (MOSCOW/NOVOYE SR, RU) observed 0400 UTC 25 June 2019
Temperature: 19.0°C (66°F)
Dewpoint: 9.0°C (48°F) [RH = 52%]
Pressure (altimeter): 30.32 inches Hg (1027.0 mb)
Winds: from the WNW (290 degrees) at 5 MPH (4 knots; 2.1 m/s)
Visibility: 6 or more miles (10+ km)
Ceiling: ceiling and visibility are OK
Clouds: unknown
Weather: no significant weather observed at this time

METAR text: UUBW 250330Z 31003MPS CAVOK 18/09 Q1026 R30/010060 NOSIG
Conditions at: UUBW (MOSCOW/NOVOYE SR, RU) observed 0330 UTC 25 June 2019
Temperature: 18.0°C (64°F)
Dewpoint: 9.0°C (48°F) [RH = 56%]
Pressure (altimeter): 30.30 inches Hg (1026.0 mb)
Winds: from the NW (310 degrees) at 7 MPH (6 knots; 3.1 m/s)
Visibility: 6 or more miles (10+ km)
Ceiling: ceiling and visibility are OK
Clouds: unknown
Weather: no significant weather observed at this time

METAR text: UUBW 250300Z 00000MPS CAVOK 17/10 Q1026 R30/010060 NOSIG
Conditions at: UUBW (MOSCOW/NOVOYE SR, RU) observed 0300 UTC 25 June 2019
Temperature: 17.0°C (63°F)
Dewpoint: 10.0°C (50°F) [RH = 63%]
Pressure (altimeter): 30.30 inches Hg (1026.0 mb)
Winds: calm
Visibility: 6 or more miles (10+ km)
Ceiling: ceiling and visibility are OK
Clouds: unknown
Weather: no significant weather observed at this time

METAR text: UUBW 250230Z 00000MPS CAVOK 16/09 Q1026 R30/010060 NOSIG
Conditions at: UUBW (MOSCOW/NOVOYE SR, RU) observed 0230 UTC 25 June 2019
Temperature: 16.0°C (61°F)
Dewpoint: 9.0°C (48°F) [RH = 63%]
Pressure (altimeter): 30.30 inches Hg (1026.0 mb)
Winds: calm
Visibility: 6 or more miles (10+ km)
Ceiling: ceiling and visibility are OK
Clouds: unknown
Weather: no significant weather observed at this time

METAR text: UUBW 250200Z 29002MPS CAVOK 14/08 Q1026 R30/010060 NOSIG
Conditions at: UUBW (MOSCOW/NOVOYE SR, RU) observed 0200 UTC 25 June 2019
Temperature: 14.0°C (57°F)
Dewpoint: 8.0°C (46°F) [RH = 67%]
Pressure (altimeter): 30.30 inches Hg (1026.0 mb)
Winds: from the WNW (290 degrees) at 5 MPH (4 knots; 2.1 m/s)
Visibility: 6 or more miles (10+ km)
Ceiling: ceiling and visibility are OK
Clouds: unknown
Weather: no significant weather observed at this time

METAR text: UUBW 250130Z 31001MPS CAVOK 14/08 Q1026 R30/010060 NOSIG
Conditions at: UUBW (MOSCOW/NOVOYE SR, RU) observed 0130 UTC 25 June 2019
Temperature: 14.0°C (57°F)
Dewpoint: 8.0°C (46°F) [RH = 67%]
Pressure (altimeter): 30.30 inches Hg (1026.0 mb)
Winds: from the NW (310 degrees) at 2 MPH (2 knots; 1.0 m/s)
Visibility: 6 or more miles (10+ km)
Ceiling: ceiling and visibility are OK
Clouds: unknown
Weather: no significant weather observed at this time

METAR text: UUBW 250100Z 29001MPS CAVOK 14/08 Q1026 R30/010060 NOSIG
Conditions at: UUBW (MOSCOW/NOVOYE SR, RU) observed 0100 UTC 25 June 2019
Temperature: 14.0°C (57°F)
Dewpoint: 8.0°C (46°F) [RH = 67%]
Pressure (altimeter): 30.30 inches Hg (1026.0 mb)
Winds: from the WNW (290 degrees) at 2 MPH (2 knots; 1.0 m/s)
Visibility: 6 or more miles (10+ km)
Ceiling: ceiling and visibility are OK
Clouds: unknown
Weather: no significant weather observed at this time

METAR text: UUBW 250030Z 29002MPS CAVOK 15/07 Q1025 R30/010060 NOSIG
Conditions at: UUBW (MOSCOW/NOVOYE SR, RU) observed 0030 UTC 25 June 2019
Temperature: 15.0°C (59°F)
Dewpoint: 7.0°C (45°F) [RH = 59%]
Pressure (altimeter): 30.27 inches Hg (1025.0 mb)
Winds: from the WNW (290 degrees) at 5 MPH (4 knots; 2.1 m/s)
Visibility: 6 or more miles (10+ km)
Ceiling: ceiling and visibility are OK
Clouds: unknown
Weather: no significant weather observed at this time

METAR text: UUBW 250000Z 31002MPS CAVOK 16/07 Q1025 R30/010060 NOSIG
Conditions at: UUBW (MOSCOW/NOVOYE SR, RU) observed 0000 UTC 25 June 2019
Temperature: 16.0°C (61°F)
Dewpoint: 7.0°C (45°F) [RH = 55%]
Pressure (altimeter): 30.27 inches Hg (1025.0 mb)
Winds: from the NW (310 degrees) at 5 MPH (4 knots; 2.1 m/s)
Visibility: 6 or more miles (10+ km)
Ceiling: ceiling and visibility are OK
Clouds: unknown
Weather: no significant weather observed at this time

METAR text: UUBW 242330Z 34003MPS CAVOK 16/07 Q1025 R30/010060 NOSIG
Conditions at: UUBW (MOSCOW/NOVOYE SR, RU) observed 2330 UTC 24 June 2019
Temperature: 16.0°C (61°F)
Dewpoint: 7.0°C (45°F) [RH = 55%]
Pressure (altimeter): 30.27 inches Hg (1025.0 mb)
Winds: from the NNW (340 degrees) at 7 MPH (6 knots; 3.1 m/s)
Visibility: 6 or more miles (10+ km)
Ceiling: ceiling and visibility are OK
Clouds: unknown
Weather: no significant weather observed at this time

METAR text: UUBW 242300Z 33003MPS CAVOK 17/07 Q1025 R30/010060 NOSIG
Conditions at: UUBW (MOSCOW/NOVOYE SR, RU) observed 2300 UTC 24 June 2019
Temperature: 17.0°C (63°F)
Dewpoint: 7.0°C (45°F) [RH = 52%]
Pressure (altimeter): 30.27 inches Hg (1025.0 mb)
Winds: from the NNW (330 degrees) at 7 MPH (6 knots; 3.1 m/s)
Visibility: 6 or more miles (10+ km)
Ceiling: ceiling and visibility are OK
Clouds: unknown
Weather: no significant weather observed at this time

METAR text: UUBW 242230Z 34003MPS CAVOK 17/07 Q1025 R30/010060 NOSIG
Conditions at: UUBW (MOSCOW/NOVOYE SR, RU) observed 2230 UTC 24 June 2019
Temperature: 17.0°C (63°F)
Dewpoint: 7.0°C (45°F) [RH = 52%]
Pressure (altimeter): 30.27 inches Hg (1025.0 mb)
Winds: from the NNW (340 degrees) at 7 MPH (6 knots; 3.1 m/s)
Visibility: 6 or more miles (10+ km)
Ceiling: ceiling and visibility are OK
Clouds: unknown
Weather: no significant weather observed at this time

METAR text: UUBW 242200Z 35003MPS CAVOK 17/07 Q1025 R30/010060 NOSIG
Conditions at: UUBW (MOSCOW/NOVOYE SR, RU) observed 2200 UTC 24 June 2019
Temperature: 17.0°C (63°F)
Dewpoint: 7.0°C (45°F) [RH = 52%]
Pressure (altimeter): 30.27 inches Hg (1025.0 mb)
Winds: from the N (350 degrees) at 7 MPH (6 knots; 3.1 m/s)
Visibility: 6 or more miles (10+ km)
Ceiling: ceiling and visibility are OK
Clouds: unknown
Weather: no significant weather observed at this time

METAR text: UUBW 242130Z 35003MPS CAVOK 18/07 Q1025 R30/010060 NOSIG
Conditions at: UUBW (MOSCOW/NOVOYE SR, RU) observed 2130 UTC 24 June 2019
Temperature: 18.0°C (64°F)
Dewpoint: 7.0°C (45°F) [RH = 49%]
Pressure (altimeter): 30.27 inches Hg (1025.0 mb)
Winds: from the N (350 degrees) at 7 MPH (6 knots; 3.1 m/s)
Visibility: 6 or more miles (10+ km)
Ceiling: ceiling and visibility are OK
Clouds: unknown
Weather: no significant weather observed at this time

METAR text: UUBW 242100Z 35003MPS CAVOK 18/07 Q1024 R30/010060 NOSIG
Conditions at: UUBW (MOSCOW/NOVOYE SR, RU) observed 2100 UTC 24 June 2019
Temperature: 18.0°C (64°F)
Dewpoint: 7.0°C (45°F) [RH = 49%]
Pressure (altimeter): 30.24 inches Hg (1024.0 mb)
Winds: from the N (350 degrees) at 7 MPH (6 knots; 3.1 m/s)
Visibility: 6 or more miles (10+ km)
Ceiling: ceiling and visibility are OK
Clouds: unknown
Weather: no significant weather observed at this time

METAR text: UUBW 242030Z 35003MPS CAVOK 19/07 Q1024 R30/010060 NOSIG
Conditions at: UUBW (MOSCOW/NOVOYE SR, RU) observed 2030 UTC 24 June 2019
Temperature: 19.0°C (66°F)
Dewpoint: 7.0°C (45°F) [RH = 46%]
Pressure (altimeter): 30.24 inches Hg (1024.0 mb)
Winds: from the N (350 degrees) at 7 MPH (6 knots; 3.1 m/s)
Visibility: 6 or more miles (10+ km)
Ceiling: ceiling and visibility are OK
Clouds: unknown
Weather: no significant weather observed at this time

METAR text: UUBW 242000Z 35003MPS CAVOK 20/07 Q1024 R30/010060 NOSIG
Conditions at: UUBW (MOSCOW/NOVOYE SR, RU) observed 2000 UTC 24 June 2019
Temperature: 20.0°C (68°F)
Dewpoint: 7.0°C (45°F) [RH = 43%]
Pressure (altimeter): 30.24 inches Hg (1024.0 mb)
Winds: from the N (350 degrees) at 7 MPH (6 knots; 3.1 m/s)
Visibility: 6 or more miles (10+ km)
Ceiling: ceiling and visibility are OK
Clouds: unknown
Weather: no significant weather observed at this time

METAR text: UUBW 241930Z 35003MPS CAVOK 21/07 Q1023 R30/010060 NOSIG
Conditions at: UUBW (MOSCOW/NOVOYE SR, RU) observed 1930 UTC 24 June 2019
Temperature: 21.0°C (70°F)
Dewpoint: 7.0°C (45°F) [RH = 40%]
Pressure (altimeter): 30.21 inches Hg (1023.0 mb)
Winds: from the N (350 degrees) at 7 MPH (6 knots; 3.1 m/s)
Visibility: 6 or more miles (10+ km)
Ceiling: ceiling and visibility are OK
Clouds: unknown
Weather: no significant weather observed at this time

METAR text: UUBW 241900Z 34003MPS CAVOK 21/06 Q1023 R30/010060 NOSIG
Conditions at: UUBW (MOSCOW/NOVOYE SR, RU) observed 1900 UTC 24 June 2019
Temperature: 21.0°C (70°F)
Dewpoint: 6.0°C (43°F) [RH = 38%]
Pressure (altimeter): 30.21 inches Hg (1023.0 mb)
Winds: from the NNW (340 degrees) at 7 MPH (6 knots; 3.1 m/s)
Visibility: 6 or more miles (10+ km)
Ceiling: ceiling and visibility are OK
Clouds: unknown
Weather: no significant weather observed at this time

METAR text: UUBW 241830Z 34002MPS CAVOK 22/06 Q1023 R30/010060 NOSIG
Conditions at: UUBW (MOSCOW/NOVOYE SR, RU) observed 1830 UTC 24 June 2019
Temperature: 22.0°C (72°F)
Dewpoint: 6.0°C (43°F) [RH = 35%]
Pressure (altimeter): 30.21 inches Hg (1023.0 mb)
Winds: from the NNW (340 degrees) at 5 MPH (4 knots; 2.1 m/s)
Visibility: 6 or more miles (10+ km)
Ceiling: ceiling and visibility are OK
Clouds: unknown
Weather: no significant weather observed at this time

METAR text: UUBW 241800Z 35003MPS CAVOK 22/06 Q1022 R30/010060 NOSIG
Conditions at: UUBW (MOSCOW/NOVOYE SR, RU) observed 1800 UTC 24 June 2019
Temperature: 22.0°C (72°F)
Dewpoint: 6.0°C (43°F) [RH = 35%]
Pressure (altimeter): 30.18 inches Hg (1022.0 mb)
Winds: from the N (350 degrees) at 7 MPH (6 knots; 3.1 m/s)
Visibility: 6 or more miles (10+ km)
Ceiling: ceiling and visibility are OK
Clouds: unknown
Weather: no significant weather observed at this time

METAR text: UUBW 241730Z 36002MPS CAVOK 23/06 Q1022 R30/010060 NOSIG
Conditions at: UUBW (MOSCOW/NOVOYE SR, RU) observed 1730 UTC 24 June 2019
Temperature: 23.0°C (73°F)
Dewpoint: 6.0°C (43°F) [RH = 33%]
Pressure (altimeter): 30.18 inches Hg (1022.0 mb)
Winds: from the N (360 degrees) at 5 MPH (4 knots; 2.1 m/s)
Visibility: 6 or more miles (10+ km)
Ceiling: ceiling and visibility are OK
Clouds: unknown
Weather: no significant weather observed at this time

METAR text: UUBW 241700Z 35004MPS CAVOK 24/05 Q1022 R30/010060 NOSIG
Conditions at: UUBW (MOSCOW/NOVOYE SR, RU) observed 1700 UTC 24 June 2019
Temperature: 24.0°C (75°F)
Dewpoint: 5.0°C (41°F) [RH = 29%]
Pressure (altimeter): 30.18 inches Hg (1022.0 mb)
Winds: from the N (350 degrees) at 9 MPH (8 knots; 4.1 m/s)
Visibility: 6 or more miles (10+ km)
Ceiling: ceiling and visibility are OK
Clouds: unknown
Weather: no significant weather observed at this time

METAR text: UUBW 241630Z 35005MPS CAVOK 24/06 Q1022 R30/010060 NOSIG
Conditions at: UUBW (MOSCOW/NOVOYE SR, RU) observed 1630 UTC 24 June 2019
Temperature: 24.0°C (75°F)
Dewpoint: 6.0°C (43°F) [RH = 31%]
Pressure (altimeter): 30.18 inches Hg (1022.0 mb)
Winds: from the N (350 degrees) at 12 MPH (10 knots; 5.1 m/s)
Visibility: 6 or more miles (10+ km)
Ceiling: ceiling and visibility are OK
Clouds: unknown
Weather: no significant weather observed at this time

Forecast for: COR
Text: TAF COR UUBW 260158Z 2603/2703 24003MPS 9000 BKN030 TX23/2612Z TN13/2701Z
Forecast period: 0300 UTC 26 June 2019 to 0300 UTC 27 June 2019
Forecast type: FROM: standard forecast or significant change
Winds: from the WSW (240 degrees) at 7 MPH (6 knots; 3.1 m/s)
Visibility: 6 miles (9 km)
Ceiling: 3000 feet AGL
Clouds: broken clouds at 3000 feet AGL
Weather: no significant weather forecast for this period
Text: TEMPO 2608/2621 30005MPS 3100 -SHRA SCT011 BKN020CB
Forecast period: 0800 to 2100 UTC 26 June 2019
Forecast type: TEMPORARY: The following changes expected for less than half the time period
Winds: from the WNW (300 degrees) at 12 MPH (10 knots; 5.1 m/s)
Visibility: 1.93 miles (3.11 km)
Ceiling: 2000 feet AGL
Clouds: scattered clouds at 1100 feet AGL
broken clouds at 2000 feet AGL
Weather: -SHRA  (light rain showers)
Text: PROB40
Forecast period: 0800 to 2100 UTC 26 June 2019
Forecast type: TEMPORARY: The following changes expected for less than half the time period
Visibility: missing
Ceiling: 1500 feet AGL
Clouds: broken clouds at 1500 feet AGL
Weather: -TSRA  (light rain associated with thunderstorm(s))
Text: TEMPO 2608/2621 -TSRA BKN015CB
Forecast period: 2100 UTC 26 June 2019 to 0300 UTC 27 June 2019
Forecast type: TEMPORARY: The following changes expected for less than half the time period
Winds: from the ESE (110 degrees) at 12 MPH (10 knots; 5.1 m/s)
Visibility: 1.93 miles (3.11 km)
Ceiling: 1100 feet AGL
Clouds: few clouds at 300 feet AGL
broken clouds at 1100 feet AGL
scattered clouds at 1500 feet AGL
Weather: -SHRA BR  (light rain showers, mist)
Text: TEMPO 2621/2703 11005MPS 3100 -SHRA BR FEW003 BKN011 SCT015CB
Forecast period: 2100 UTC 26 June 2019 to 0300 UTC 27 June 2019
Forecast type: TEMPORARY: The following changes expected for less than half the time period
Visibility: missing
Ceiling: 1500 feet AGL
Clouds: broken clouds at 1500 feet AGL
Weather: -TSRA  (light rain associated with thunderstorm(s))